createdAt,value
2023-02-17T00:45:13.829Z,6.90
2023-02-17T00:47:59.617Z,7.60
2023-02-17T00:50:45.668Z,7.68
2023-02-17T00:53:31.450Z,7.57
2023-02-17T00:56:18.580Z,7.40
2023-02-17T00:59:04.001Z,7.28
2023-02-17T01:47:39.651Z,6.93
2023-02-17T01:50:30.058Z,6.97
2023-02-17T01:53:24.218Z,7.18
2023-02-17T01:56:14.145Z,6.97
2023-02-17T01:59:03.941Z,6.43
2023-02-17T02:47:43.466Z,5.73
2023-02-17T02:50:35.779Z,6.38
2023-02-17T02:54:01.526Z,5.63
2023-02-17T02:57:15.939Z,6.05
2023-02-17T03:47:08.837Z,6.10
2023-02-17T03:49:54.092Z,5.68
2023-02-17T03:52:39.761Z,4.95
2023-02-17T03:55:25.108Z,5.70
2023-02-17T03:58:10.850Z,5.60
2023-02-17T04:45:16.853Z,4.35
2023-02-17T04:48:02.575Z,5.20
2023-02-17T04:50:48.284Z,4.97
2023-02-17T04:53:33.620Z,4.72
2023-02-17T04:56:19.011Z,4.80
2023-02-17T04:59:04.602Z,5.25
2023-02-17T05:47:28.126Z,4.50
2023-02-17T05:50:13.784Z,4.88
2023-02-17T05:52:59.155Z,4.55
2023-02-17T05:55:44.657Z,4.72
2023-02-17T05:58:30.149Z,4.85
2023-02-17T06:01:15.686Z,4.67
2023-02-17T06:04:00.994Z,4.30
2023-02-17T06:06:46.796Z,4.40
2023-02-17T06:09:32.463Z,5.03
2023-02-17T06:12:17.828Z,4.00
2023-02-17T06:15:03.773Z,4.00
2023-02-17T06:17:49.302Z,4.50
2023-02-17T06:20:37.982Z,3.95
2023-02-17T06:23:29.332Z,4.50
2023-02-17T06:26:14.753Z,4.45
2023-02-17T06:29:02.783Z,4.33
2023-02-17T06:31:48.333Z,4.03
2023-02-17T06:34:34.129Z,4.35
2023-02-17T06:37:22.270Z,4.38
2023-02-17T06:40:08.308Z,4.40
2023-02-17T06:42:53.950Z,3.93
2023-02-17T06:45:39.582Z,4.22
2023-02-17T06:48:24.815Z,4.32
2023-02-17T06:51:10.824Z,4.07
2023-02-17T06:53:58.939Z,4.10
2023-02-17T06:56:45.048Z,4.00
2023-02-17T06:59:33.694Z,4.35
2023-02-17T07:02:19.796Z,4.22
2023-02-17T07:05:07.471Z,4.25
2023-02-17T07:07:53.798Z,4.53
2023-02-17T07:10:39.640Z,4.27
2023-02-17T07:13:25.799Z,4.07
2023-02-17T07:16:13.738Z,4.13
2023-02-17T07:18:59.465Z,4.10
2023-02-17T07:21:45.591Z,4.30
2023-02-17T07:24:30.851Z,5.27
2023-02-17T07:27:16.547Z,5.00
2023-02-17T07:30:02.423Z,5.78
2023-02-17T07:32:48.259Z,5.53
2023-02-17T07:35:34.862Z,5.35
2023-02-17T07:38:20.211Z,6.43
2023-02-17T07:41:07.821Z,5.30
2023-02-17T07:43:55.698Z,6.05
2023-02-17T07:46:41.009Z,7.45
2023-02-17T07:49:26.586Z,7.97
2023-02-17T07:52:12.315Z,7.40
2023-02-17T07:54:57.845Z,7.47
2023-02-17T07:57:43.511Z,6.88
2023-02-17T08:00:28.743Z,7.18
2023-02-17T08:03:14.211Z,7.47
2023-02-17T08:05:59.728Z,7.50
2023-02-17T08:09:03.903Z,7.55
2023-02-17T08:12:08.148Z,7.38
2023-02-17T08:14:58.016Z,7.55
2023-02-17T08:17:44.496Z,7.43
2023-02-17T08:20:29.889Z,6.57
2023-02-17T08:23:15.518Z,6.80
2023-02-17T08:26:00.939Z,6.35
2023-02-17T08:28:53.248Z,5.47
2023-02-17T08:31:38.968Z,5.25
2023-02-17T08:34:24.321Z,4.30
2023-02-17T08:37:10.603Z,4.30
2023-02-17T08:39:56.199Z,4.47
2023-02-17T08:42:41.709Z,4.10
2023-02-17T08:45:27.168Z,3.80
2023-02-17T08:48:12.559Z,3.47
2023-02-17T08:50:57.989Z,3.90
2023-02-17T08:53:44.332Z,3.33
2023-02-17T08:56:30.219Z,2.83
2023-02-17T08:59:16.028Z,2.90
2023-02-17T09:02:01.825Z,2.93
2023-02-17T09:04:47.197Z,2.53
2023-02-17T09:07:32.632Z,2.40
2023-02-17T09:10:18.613Z,2.55
2023-02-17T09:13:04.522Z,2.65
2023-02-17T09:15:53.812Z,2.27
2023-02-17T09:18:39.824Z,2.40
2023-02-17T09:21:25.525Z,2.03
2023-02-17T09:24:10.827Z,2.08
2023-02-17T09:26:56.208Z,2.20
2023-02-17T09:29:41.777Z,2.20
2023-02-17T09:32:27.354Z,2.30
2023-02-17T09:35:14.389Z,2.10
2023-02-17T09:37:59.728Z,2.17
2023-02-17T09:40:49.858Z,2.10
2023-02-17T09:43:35.350Z,1.90
2023-02-17T09:46:33.105Z,2.15
2023-02-17T09:49:24.227Z,1.83
2023-02-17T09:52:27.901Z,1.90
2023-02-17T09:55:17.060Z,1.90
2023-02-17T09:58:04.942Z,1.60
2023-02-17T10:01:02.306Z,1.75
2023-02-17T10:03:51.675Z,1.75
2023-02-17T10:06:44.470Z,4.35
2023-02-17T10:09:41.795Z,6.10
2023-02-17T10:12:37.258Z,5.17
2023-02-17T10:15:26.660Z,5.18
2023-02-17T10:18:20.275Z,5.20
2023-02-17T10:21:38.598Z,5.45
2023-02-17T10:24:25.017Z,5.30
2023-02-17T10:27:28.765Z,5.37
2023-02-17T10:30:33.949Z,5.25
2023-02-17T10:33:38.236Z,5.13
2023-02-17T10:36:45.628Z,5.30
2023-02-17T10:39:54.822Z,5.22
2023-02-17T10:42:40.766Z,5.20
2023-02-17T10:45:40.350Z,5.07
2023-02-17T10:48:33.252Z,5.20
2023-02-17T10:51:23.595Z,5.00
2023-02-17T10:54:24.643Z,5.05
2023-02-17T10:57:13.468Z,5.00
2023-02-17T10:59:58.956Z,4.75
2023-02-17T11:02:47.493Z,5.03
2023-02-17T11:05:34.893Z,4.78
2023-02-17T11:08:30.538Z,4.68
2023-02-17T11:11:20.407Z,4.73
2023-02-17T11:14:06.466Z,4.80
2023-02-17T11:17:02.296Z,5.10
2023-02-17T11:20:04.713Z,4.90
2023-02-17T11:23:05.681Z,4.63
2023-02-17T11:26:16.727Z,4.90
2023-02-17T11:29:21.178Z,4.88
2023-02-17T11:32:12.431Z,4.30
2023-02-17T11:35:00.772Z,4.82
2023-02-17T11:37:46.598Z,4.53
2023-02-17T11:40:33.428Z,4.50
2023-02-17T11:43:19.202Z,4.18
2023-02-17T11:46:25.762Z,4.35
2023-02-17T11:49:58.776Z,3.85
2023-02-17T11:52:49.984Z,4.10
2023-02-17T11:55:53.293Z,3.90
2023-02-17T11:58:50.133Z,13.55
2023-02-17T12:01:49.915Z,10.88
2023-02-17T12:04:57.380Z,10.45
2023-02-17T12:07:54.420Z,9.75
2023-02-17T12:10:46.054Z,9.80
2023-02-17T12:14:17.303Z,8.88
2023-02-17T12:17:49.908Z,9.02
2023-02-17T12:21:06.369Z,9.00
2023-02-17T12:23:53.180Z,8.15
2023-02-17T12:26:46.403Z,8.73
2023-02-17T12:29:42.759Z,8.48
2023-02-17T12:32:59.526Z,8.68
2023-02-17T12:36:11.816Z,7.90
2023-02-17T12:39:12.318Z,8.40
2023-02-17T12:42:25.120Z,8.20
2023-02-17T12:45:16.821Z,9.25
2023-02-17T12:48:15.179Z,8.15
2023-02-17T12:51:50.512Z,7.82
2023-02-17T12:54:49.501Z,7.95
2023-02-17T12:57:34.439Z,7.67
2023-02-17T13:00:48.790Z,8.13
2023-02-17T13:03:36.059Z,7.28
2023-02-17T13:06:40.910Z,6.93
2023-02-17T13:09:54.652Z,7.38
2023-02-17T13:12:41.195Z,7.43
2023-02-17T13:19:48.100Z,6.55
2023-02-17T13:22:34.370Z,6.40
2023-02-17T13:25:32.847Z,6.28
2023-02-17T13:28:34.298Z,6.23
2023-02-17T13:31:25.214Z,7.80
2023-02-17T13:34:10.862Z,7.32
2023-02-17T13:36:58.090Z,7.18
2023-02-17T13:39:43.832Z,7.25
2023-02-17T13:42:40.261Z,7.97
2023-02-17T13:45:39.729Z,8.20
2023-02-17T13:48:26.077Z,9.25
2023-02-17T13:51:27.131Z,9.63
2023-02-17T13:54:15.102Z,10.77
2023-02-17T13:57:00.540Z,10.60
2023-02-17T13:59:46.061Z,10.57
2023-02-17T14:02:36.427Z,10.63
2023-02-17T14:05:23.496Z,10.20
2023-02-17T14:08:33.188Z,9.90
2023-02-17T14:11:23.675Z,9.53
2023-02-17T14:14:12.304Z,10.27
2023-02-17T14:17:05.035Z,9.63
2023-02-17T14:19:51.667Z,10.20
2023-02-17T14:22:38.002Z,9.90
2023-02-17T14:25:29.852Z,9.93
2023-02-17T14:28:20.802Z,9.77
2023-02-17T14:31:19.904Z,9.50
2023-02-17T14:34:07.313Z,9.40
2023-02-17T14:36:53.063Z,9.50
2023-02-17T14:39:38.255Z,9.93
2023-02-17T14:42:23.584Z,8.57
2023-02-17T14:45:09.055Z,8.10
2023-02-17T14:47:55.233Z,8.68
2023-02-17T14:50:44.115Z,8.88
2023-02-17T14:53:32.844Z,8.20
2023-02-17T14:56:33.334Z,8.68
2023-02-17T14:59:19.144Z,8.00
2023-02-17T15:02:16.771Z,8.10
2023-02-17T15:05:02.200Z,8.10
2023-02-17T15:07:48.239Z,7.93
2023-02-17T15:10:35.910Z,7.97
2023-02-17T15:13:22.765Z,8.20
2023-02-17T15:16:08.424Z,7.70
2023-02-17T15:18:54.160Z,7.47
2023-02-17T15:21:43.068Z,7.43
2023-02-17T15:24:33.491Z,7.55
2023-02-17T15:27:19.442Z,7.13
2023-02-17T15:30:06.959Z,7.13
2023-02-17T15:32:52.750Z,7.40
2023-02-17T15:35:40.143Z,7.40
2023-02-17T15:38:28.271Z,6.78
2023-02-17T15:41:21.048Z,6.75
2023-02-17T15:44:12.611Z,7.18
2023-02-17T15:46:58.905Z,6.60
2023-02-17T15:49:45.022Z,6.87
2023-02-17T15:52:30.370Z,7.05
2023-02-17T15:55:17.403Z,6.10
2023-02-17T15:58:06.416Z,6.53
2023-02-17T16:01:01.627Z,6.70
2023-02-17T16:03:47.287Z,6.50
2023-02-17T16:06:32.841Z,6.70
2023-02-17T16:09:20.626Z,6.28
2023-02-17T16:12:08.538Z,6.20
2023-02-17T16:14:55.414Z,5.90
2023-02-17T16:17:41.051Z,5.80
2023-02-17T16:20:34.508Z,6.10
2023-02-17T16:23:20.514Z,5.75
2023-02-17T16:26:13.096Z,6.30
2023-02-17T16:29:03.048Z,5.88
2023-02-17T16:31:48.915Z,5.80
2023-02-17T16:34:34.830Z,5.30
2023-02-17T16:37:22.609Z,5.43
2023-02-17T16:40:17.118Z,5.55
2023-02-17T16:43:03.755Z,5.70
2023-02-17T16:45:58.634Z,5.33
2023-02-17T16:48:44.812Z,5.15
2023-02-17T16:51:30.816Z,5.05
2023-02-17T16:54:17.525Z,5.32
2023-02-17T16:57:07.963Z,4.95
2023-02-17T16:59:55.947Z,5.20
2023-02-17T17:02:41.560Z,5.15
2023-02-17T17:05:29.329Z,5.22
2023-02-17T17:08:16.595Z,5.28
2023-02-17T17:11:05.375Z,5.00
2023-02-17T17:13:52.122Z,5.63
2023-02-17T17:16:39.470Z,5.10
2023-02-17T17:19:24.971Z,4.70
2023-02-17T17:22:11.578Z,4.60
2023-02-17T17:24:56.832Z,4.60
2023-02-17T17:27:42.581Z,4.70
2023-02-17T17:31:02.615Z,4.45
2023-02-17T17:33:52.398Z,4.70
2023-02-17T17:36:43.743Z,5.10
2023-02-17T17:39:29.359Z,4.85
2023-02-17T17:42:15.610Z,4.60
2023-02-17T17:45:00.920Z,5.32
2023-02-17T17:47:46.355Z,4.65
2023-02-17T17:50:31.787Z,4.47
2023-02-17T17:53:17.337Z,4.38
2023-02-17T17:56:02.943Z,4.40
2023-02-17T17:58:49.064Z,4.43
2023-02-17T18:01:34.942Z,4.15
2023-02-17T18:04:20.605Z,4.65
2023-02-17T18:07:09.218Z,4.57
2023-02-17T18:09:55.155Z,4.60
2023-02-17T18:12:43.568Z,4.95
2023-02-17T18:15:29.217Z,5.07
2023-02-17T18:18:15.771Z,4.60
2023-02-17T18:21:01.107Z,4.30
2023-02-17T18:23:46.523Z,4.30
2023-02-17T18:26:32.301Z,4.15
2023-02-17T18:29:21.219Z,4.10
2023-02-17T18:32:06.919Z,4.40
2023-02-17T18:34:52.287Z,4.35
2023-02-17T18:37:37.497Z,4.57
2023-02-17T18:40:23.030Z,3.90
2023-02-17T18:43:09.052Z,4.22
2023-02-17T18:45:54.747Z,4.00
2023-02-17T18:48:40.581Z,4.15
2023-02-17T18:51:27.571Z,3.13
2023-02-17T18:54:12.879Z,2.55
2023-02-17T18:56:58.759Z,2.30
2023-02-17T18:59:44.581Z,2.10
2023-02-17T19:02:30.313Z,2.25
2023-02-17T19:05:17.513Z,2.17
2023-02-17T19:08:02.693Z,2.47
2023-02-17T19:10:47.976Z,2.20
2023-02-17T19:13:33.266Z,2.22
2023-02-17T19:16:25.916Z,1.90
2023-02-17T19:19:11.241Z,2.13
2023-02-17T19:21:56.377Z,2.47
2023-02-17T19:24:42.041Z,2.33
2023-02-17T19:27:28.972Z,2.72
2023-02-17T19:30:14.169Z,2.53
2023-02-17T19:32:59.772Z,2.13
2023-02-17T19:35:45.304Z,2.35
2023-02-17T19:38:30.530Z,2.28
2023-02-17T19:41:16.640Z,2.63
2023-02-17T19:44:01.727Z,2.30
2023-02-17T19:46:47.340Z,2.20
2023-02-17T19:49:32.552Z,2.17
2023-02-17T19:52:19.686Z,2.30
2023-02-17T19:55:05.990Z,2.67
2023-02-17T19:57:52.048Z,2.30
2023-02-17T20:00:37.686Z,2.17
2023-02-17T20:03:23.020Z,2.65
2023-02-17T20:06:11.926Z,3.80
2023-02-17T20:09:03.621Z,4.97
2023-02-17T20:11:52.923Z,7.20
2023-02-17T20:14:38.730Z,12.07
2023-02-17T20:17:23.918Z,15.32
2023-02-17T20:20:11.107Z,17.30
2023-02-17T20:22:56.826Z,18.88
2023-02-17T20:25:41.912Z,21.38
2023-02-17T20:28:28.515Z,21.10
2023-02-17T20:31:13.876Z,30.20
2023-02-17T20:34:03.284Z,41.10
2023-02-17T20:36:48.890Z,48.58
2023-02-17T20:39:35.781Z,46.35
2023-02-17T20:42:21.591Z,47.80
2023-02-17T20:45:07.030Z,45.05
2023-02-17T20:47:52.379Z,45.17
2023-02-17T20:50:37.864Z,45.45
2023-02-17T20:53:23.924Z,46.15
2023-02-17T20:56:18.315Z,45.97
2023-02-17T20:59:04.422Z,45.15
2023-02-17T21:01:49.846Z,46.17
2023-02-17T21:04:34.915Z,46.53
2023-02-17T21:07:20.144Z,46.60
2023-02-17T21:10:08.646Z,44.93
2023-02-17T21:12:54.316Z,45.55
2023-02-17T21:15:39.910Z,47.63
2023-02-17T21:18:25.740Z,45.78
2023-02-17T21:21:12.599Z,45.03
2023-02-17T21:23:58.969Z,44.40
2023-02-17T21:26:44.298Z,44.40
2023-02-17T21:29:29.492Z,44.08
2023-02-17T21:32:15.297Z,45.45
2023-02-17T21:35:00.562Z,38.42
2023-02-17T21:37:46.228Z,32.23
2023-02-17T21:40:32.096Z,33.13
2023-02-17T21:43:45.688Z,34.50
2023-02-17T21:46:31.972Z,36.75
2023-02-17T21:49:18.364Z,35.22
2023-02-17T21:52:04.925Z,36.17
2023-02-17T21:54:50.421Z,34.92
2023-02-17T21:57:35.790Z,35.67
2023-02-17T22:00:21.410Z,35.70
2023-02-17T22:03:06.603Z,34.53
2023-02-17T22:05:52.633Z,34.23
2023-02-17T22:08:39.547Z,33.55
2023-02-17T22:11:28.116Z,32.60
2023-02-17T22:14:19.715Z,31.42
2023-02-17T22:17:05.234Z,31.45
2023-02-17T22:19:50.780Z,31.13
2023-02-17T22:22:36.408Z,29.88
2023-02-17T22:25:22.855Z,30.13
2023-02-17T22:28:10.560Z,30.02
2023-02-17T22:30:57.374Z,29.77
2023-02-17T22:33:43.033Z,28.83
2023-02-17T22:36:32.317Z,28.17
2023-02-17T22:39:17.844Z,27.85
2023-02-17T22:42:04.503Z,28.20
2023-02-17T22:44:50.366Z,27.50
2023-02-17T22:47:36.014Z,27.30
2023-02-17T22:50:21.413Z,26.95
2023-02-17T22:53:06.873Z,27.48
2023-02-17T22:55:56.810Z,25.73
2023-02-17T22:58:43.736Z,26.02
2023-02-17T23:01:31.102Z,25.63
2023-02-17T23:04:16.686Z,25.17
2023-02-17T23:07:03.294Z,25.50
2023-02-17T23:09:49.194Z,24.77
2023-02-17T23:12:34.433Z,25.73
2023-02-17T23:15:20.031Z,24.50
2023-02-17T23:18:08.458Z,24.35
2023-02-17T23:20:54.198Z,24.20
2023-02-17T23:23:40.078Z,24.00
2023-02-17T23:26:25.646Z,24.30
2023-02-17T23:29:11.826Z,23.87
2023-02-17T23:31:58.246Z,23.60
2023-02-17T23:34:43.467Z,24.27
2023-02-17T23:37:28.841Z,23.05
2023-02-17T23:40:14.873Z,23.38
2023-02-17T23:43:00.705Z,23.13
2023-02-17T23:45:46.666Z,22.33
2023-02-17T23:48:33.066Z,22.48
2023-02-17T23:51:19.164Z,21.95
2023-02-17T23:54:04.472Z,22.63
2023-02-17T23:56:49.786Z,21.60
2023-02-17T23:59:35.064Z,22.33
